Time;durP1;ratioP1;P1;durP2;ratioP2;P2;SDS_P1;SDS_P2;PMS_P1;PMS_P2;Temp;Humidity;BMP_temperature;BMP_pressure;BME280_temperature;BME280_humidity;BME280_pressure;Samples;Min_cycle;Max_cycle;Signal;HPM_P1;HPM_P2
2022/08/02 00:00:33;;;;;;;3.45;2.47;;;;;;;16.21;92.36;94846.38;5090741;28;20031;-70
2022/08/02 00:03:00;;;;;;;5.97;3.22;;;;;;;16.05;93.08;94837.72;5090358;28;20043;-70
2022/08/02 00:05:27;;;;;;;4.63;2.90;;;;;;;16.11;93.60;94851.63;5072068;28;20271;-70
2022/08/02 00:07:54;;;;;;;3.80;3.20;;;;;;;16.00;94.58;94855.31;5092025;28;20487;-71
2022/08/02 00:10:21;;;;;;;5.03;3.38;;;;;;;15.96;94.44;94849.03;5086400;28;20047;-70
2022/08/02 00:12:48;;;;;;;2.97;2.65;;;;;;;15.94;94.39;94857.16;5071026;28;20044;-70
2022/08/02 00:15:15;;;;;;;8.25;3.30;;;;;;;15.73;94.21;94834.56;5080766;28;20052;-70
2022/08/02 00:17:43;;;;;;;4.60;3.53;;;;;;;15.78;95.52;94853.75;5065462;28;20126;-71
2022/08/02 00:20:12;;;;;;;3.53;3.00;;;;;;;15.61;95.55;94853.19;5064148;28;20137;-70
2022/08/02 00:22:39;;;;;;;5.60;3.00;;;;;;;15.49;95.95;94845.56;5066022;28;20055;-70
2022/08/02 00:25:06;;;;;;;4.40;3.70;;;;;;;15.37;96.96;94843.19;5071319;28;20035;-70
2022/08/02 00:27:33;;;;;;;9.57;3.50;;;;;;;15.17;99.00;94835.28;5089077;28;20036;-70
2022/08/02 00:30:00;;;;;;;3.75;2.97;;;;;;;15.04;100.00;94839.97;5090473;28;20040;-70
2022/08/02 00:32:27;;;;;;;3.40;3.10;;;;;;;14.93;100.00;94843.63;5071564;28;20051;-70
2022/08/02 00:34:54;;;;;;;3.55;2.63;;;;;;;14.94;100.00;94849.66;5103242;27;20047;-70
2022/08/02 00:37:21;;;;;;;3.45;3.15;;;;;;;14.90;100.00;94850.16;5082255;28;20047;-70
2022/08/02 00:39:48;;;;;;;5.45;3.28;;;;;;;14.83;100.00;94843.56;5090155;28;20040;-70
2022/08/02 00:42:14;;;;;;;4.72;3.42;;;;;;;14.87;100.00;94849.88;5048583;28;20138;-70
2022/08/02 00:44:42;;;;;;;5.35;3.42;;;;;;;14.87;100.00;94847.25;5073227;28;20059;-70
2022/08/02 00:47:09;;;;;;;5.05;3.88;;;;;;;14.75;100.00;94836.19;5082172;28;20532;-70
2022/08/02 00:49:36;;;;;;;5.13;3.42;;;;;;;14.77;100.00;94844.63;5080647;28;20068;-70
2022/08/02 00:52:03;;;;;;;4.00;3.20;;;;;;;14.60;100.00;94835.09;5081641;28;20043;-70
2022/08/02 00:54:30;;;;;;;4.15;3.35;;;;;;;14.56;100.00;94841.84;5086773;28;20067;-70
2022/08/02 00:56:57;;;;;;;4.18;3.55;;;;;;;14.57;100.00;94840.03;5087381;28;20059;-70
2022/08/02 00:59:24;;;;;;;4.00;3.00;;;;;;;14.56;100.00;94849.72;5086455;28;20603;-69
2022/08/02 01:01:51;;;;;;;8.32;3.03;;;;;;;14.50;100.00;94841.06;5093945;28;20054;-70
2022/08/02 01:04:24;;;;;;;5.07;3.40;;;;;;;14.40;100.00;94845.44;5074545;28;20925;-70
2022/08/02 01:07:04;;;;;;;3.65;3.15;;;;;;;14.32;100.00;94839.66;5075349;28;20048;-70
2022/08/02 01:09:45;;;;;;;3.25;2.90;;;;;;;14.33;100.00;94840.44;5092743;28;20247;-70
2022/08/02 01:12:12;;;;;;;8.15;3.17;;;;;;;14.27;100.00;94837.00;5075707;28;20059;-70
2022/08/02 01:14:46;;;;;;;3.08;2.53;;;;;;;14.23;100.00;94835.16;5094937;28;20044;-70
2022/08/02 01:17:19;;;;;;;2.70;2.40;;;;;;;14.21;100.00;94838.03;5094684;28;20082;-70
2022/08/02 01:20:17;;;;;;;2.70;2.50;;;;;;;14.21;100.00;94845.88;5076528;28;20054;-70
2022/08/02 01:23:22;;;;;;;3.72;2.58;;;;;;;14.18;100.00;94835.91;5094260;28;20044;-70
2022/08/02 01:26:07;;;;;;;2.53;2.33;;;;;;;14.12;100.00;94834.31;5074728;28;20043;-70
2022/08/02 01:28:55;;;;;;;4.20;2.88;;;;;;;14.11;100.00;94840.56;5091543;28;20124;-68
2022/08/02 01:31:37;;;;;;;3.33;2.33;;;;;;;14.13;100.00;94841.09;5093168;28;20039;-70
2022/08/02 01:34:32;;;;;;;2.95;2.47;;;;;;;14.01;100.00;94827.41;5094583;28;20075;-70
2022/08/02 01:37:05;;;;;;;2.63;2.42;;;;;;;13.92;100.00;94832.34;5088093;28;20036;-70
2022/08/02 01:39:37;;;;;;;2.08;1.80;;;;;;;13.93;100.00;94829.44;5079834;28;20048;-70
2022/08/02 01:42:05;;;;;;;6.78;2.72;;;;;;;13.88;100.00;94826.81;5086961;28;20046;-70
2022/08/02 01:44:35;;;;;;;3.70;2.75;;;;;;;13.95;100.00;94840.47;5082776;28;20050;-70
2022/08/02 01:47:08;;;;;;;2.67;2.40;;;;;;;14.01;100.00;94832.63;5070700;28;20130;-70
2022/08/02 01:49:37;;;;;;;2.70;2.13;;;;;;;14.05;100.00;94828.50;5089733;28;20044;-70
2022/08/02 01:52:20;;;;;;;4.55;2.53;;;;;;;14.04;100.00;94826.91;5081535;28;20126;-70
2022/08/02 01:55:08;;;;;;;3.50;2.33;;;;;;;14.00;100.00;94831.06;5070100;28;20136;-70
2022/08/02 01:58:02;;;;;;;4.47;2.25;;;;;;;13.95;100.00;94822.16;5089311;28;20044;-70
2022/08/02 02:00:32;;;;;;;4.40;2.20;;;;;;;13.91;100.00;94828.91;5088187;28;20044;-70
2022/08/02 02:03:01;;;;;;;3.38;2.38;;;;;;;13.79;100.00;94815.22;5069552;28;20035;-70
2022/08/02 02:05:31;;;;;;;3.22;2.40;;;;;;;13.80;100.00;94823.88;5065586;28;20040;-70
2022/08/02 02:08:04;;;;;;;3.72;2.88;;;;;;;13.85;100.00;94823.91;5086242;28;20044;-70
2022/08/02 02:10:34;;;;;;;4.25;2.60;;;;;;;13.90;100.00;94831.78;5087809;28;20035;-70
2022/08/02 02:13:05;;;;;;;7.10;2.92;;;;;;;13.84;100.00;94830.97;5080066;28;20036;-70
2022/08/02 02:15:34;;;;;;;4.45;2.50;;;;;;;13.82;100.00;94835.66;5093012;28;20040;-70
2022/08/02 02:18:06;;;;;;;6.13;2.72;;;;;;;13.80;100.00;94827.28;5072436;28;20063;-70
2022/08/02 02:20:41;;;;;;;3.50;2.80;;;;;;;13.56;100.00;94811.91;5074589;28;20483;-70
2022/08/02 02:23:09;;;;;;;5.63;2.85;;;;;;;13.68;100.00;94834.50;5078005;28;20135;-70
2022/08/02 02:25:39;;;;;;;5.70;2.85;;;;;;;13.56;100.00;94825.00;5094704;28;20032;-70
2022/08/02 02:28:21;;;;;;;4.43;2.75;;;;;;;13.55;100.00;94841.72;5094937;28;20036;-71
2022/08/02 02:30:52;;;;;;;4.70;2.90;;;;;;;13.44;100.00;94842.69;5072323;28;20056;-70
2022/08/02 02:33:22;;;;;;;4.82;2.67;;;;;;;13.35;100.00;94836.31;5072000;28;20119;-70
2022/08/02 02:35:56;;;;;;;3.88;3.40;;;;;;;13.34;100.00;94834.72;5074123;28;20043;-70
2022/08/02 02:38:29;;;;;;;3.00;2.70;;;;;;;13.31;100.00;94835.25;5074967;28;20050;-70
2022/08/02 02:40:59;;;;;;;5.57;3.75;;;;;;;13.25;100.00;94831.75;5087011;28;20437;-70
2022/08/02 02:43:29;;;;;;;7.00;3.30;;;;;;;13.30;100.00;94831.00;5089969;28;20079;-70
2022/08/02 02:45:57;;;;;;;3.65;2.83;;;;;;;13.23;100.00;94825.19;5107490;27;20036;-70
2022/08/02 02:48:25;;;;;;;3.92;3.40;;;;;;;13.17;100.00;94830.38;5072209;28;20040;-70
2022/08/02 02:50:53;;;;;;;3.97;3.22;;;;;;;13.08;100.00;94842.31;5092327;28;20593;-69
2022/08/02 02:53:21;;;;;;;5.47;3.25;;;;;;;12.92;100.00;94817.03;5089752;28;20036;-71
2022/08/02 02:55:49;;;;;;;5.53;3.13;;;;;;;12.98;100.00;94847.41;5091405;28;20039;-70
2022/08/02 02:58:30;;;;;;;4.07;3.08;;;;;;;13.00;100.00;94845.38;5088140;28;20040;-70
2022/08/02 03:03:43;;;;;;;9.23;3.55;;;;;;;12.88;100.00;94836.88;5085795;28;20123;-70
2022/08/02 03:06:11;;;;;;;6.13;3.50;;;;;;;12.77;100.00;94831.53;5081519;28;20040;-70
2022/08/02 03:08:42;;;;;;;4.55;3.17;;;;;;;12.82;100.00;94839.41;5081314;28;20055;-71
2022/08/02 03:11:10;;;;;;;4.45;3.13;;;;;;;12.85;100.00;94842.56;5083918;28;20036;-70
2022/08/02 03:13:38;;;;;;;4.28;3.13;;;;;;;12.88;100.00;94842.09;5047590;28;20050;-70
2022/08/02 03:16:05;;;;;;;4.75;3.38;;;;;;;12.83;100.00;94845.44;5069407;28;20047;-70
2022/08/02 03:18:39;;;;;;;6.88;3.10;;;;;;;12.84;100.00;94848.81;5066283;28;20044;-70
2022/08/02 03:21:11;;;;;;;5.05;3.47;;;;;;;12.80;100.00;94841.50;5086905;28;20055;-70
2022/08/02 03:23:41;;;;;;;9.00;3.78;;;;;;;12.84;100.00;94846.22;5086335;28;20051;-70
2022/08/02 03:26:08;;;;;;;4.65;3.45;;;;;;;12.84;100.00;94843.59;5082024;28;20044;-70
2022/08/02 03:28:36;;;;;;;5.13;4.20;;;;;;;12.80;100.00;94844.09;5080465;28;20036;-70
2022/08/02 03:31:03;;;;;;;4.22;2.92;;;;;;;12.85;100.00;94839.97;5087876;28;20043;-70
2022/08/02 03:33:31;;;;;;;5.35;3.40;;;;;;;12.89;100.00;94838.44;5068866;28;20762;-70
2022/08/02 03:36:10;;;;;;;5.03;3.47;;;;;;;12.79;100.00;94826.84;5087211;28;20471;-70
2022/08/02 03:38:38;;;;;;;3.92;2.72;;;;;;;12.83;100.00;94845.44;5074266;28;20039;-70
2022/08/02 03:41:06;;;;;;;6.80;3.67;;;;;;;12.92;100.00;94837.94;5106494;28;20052;-70
2022/08/02 03:43:35;;;;;;;3.70;2.65;;;;;;;12.89;100.00;94823.56;5082659;28;20563;-70
2022/08/02 03:46:03;;;;;;;5.25;3.55;;;;;;;13.00;100.00;94850.59;5085289;28;20043;-71
2022/08/02 03:48:32;;;;;;;4.75;3.20;;;;;;;12.95;100.00;94832.25;5069420;28;20432;-71
2022/08/02 03:51:01;;;;;;;10.75;3.35;;;;;;;12.99;100.00;94838.56;5088645;28;20040;-70
2022/08/02 03:53:29;;;;;;;5.97;3.72;;;;;;;13.09;100.00;94851.75;5084773;28;20112;-70
2022/08/02 03:55:56;;;;;;;9.00;3.10;;;;;;;13.10;100.00;94844.69;5087482;28;20040;-70
2022/08/02 03:58:23;;;;;;;8.98;3.72;;;;;;;13.17;100.00;94856.50;5072106;28;20040;-70
2022/08/02 04:00:55;;;;;;;7.35;3.08;;;;;;;13.20;100.00;94866.50;5068907;28;20048;-70
2022/08/02 04:03:26;;;;;;;7.55;3.33;;;;;;;13.23;100.00;94853.97;5073437;28;20043;-70
2022/08/02 04:05:53;;;;;;;8.07;3.20;;;;;;;13.30;100.00;94867.63;5070998;28;20060;-70
2022/08/02 04:08:31;;;;;;;4.40;3.22;;;;;;;13.42;100.00;94862.28;5091749;28;20259;-70
2022/08/02 04:13:48;;;;;;;4.95;3.10;;;;;;;13.76;100.00;94876.72;5078394;28;20060;-69
2022/08/02 04:16:21;;;;;;;6.78;3.30;;;;;;;13.91;100.00;94870.03;5063972;28;20036;-70
2022/08/02 04:18:57;;;;;;;4.03;3.30;;;;;;;14.07;100.00;94873.53;5083750;27;20048;-69
2022/08/02 04:21:27;;;;;;;11.02;4.20;;;;;;;14.14;100.00;94874.91;5089742;28;20058;-69
2022/08/02 04:24:16;;;;;;;6.35;3.88;;;;;;;14.25;100.00;94867.91;5079567;28;20056;-70
2022/08/02 04:26:45;;;;;;;4.68;3.78;;;;;;;14.44;100.00;94877.97;5074494;28;20047;-69
2022/08/02 04:29:17;;;;;;;4.50;3.13;;;;;;;14.47;100.00;94851.25;5092270;27;20048;-70
2022/08/02 04:31:44;;;;;;;6.32;3.58;;;;;;;14.64;100.00;94870.25;5102703;28;20047;-68
2022/08/02 04:34:12;;;;;;;5.38;3.92;;;;;;;14.75;100.00;94867.66;5090692;27;20039;-70
2022/08/02 04:36:42;;;;;;;10.13;4.22;;;;;;;14.85;100.00;94873.72;5074131;28;21132;-70
2022/08/02 04:39:09;;;;;;;6.25;3.25;;;;;;;14.90;100.00;94880.84;5073135;28;20064;-70
2022/08/02 04:41:41;;;;;;;3.85;3.42;;;;;;;14.96;100.00;94874.56;5069165;28;20673;-69
2022/08/02 04:44:10;;;;;;;4.63;2.97;;;;;;;15.09;100.00;94879.34;5065063;28;20064;-70
2022/08/02 04:46:38;;;;;;;4.35;3.65;;;;;;;14.97;100.00;94863.03;5068066;28;20486;-70
2022/08/02 04:49:05;;;;;;;4.15;3.60;;;;;;;15.17;100.00;94877.25;5055179;28;20044;-69
2022/08/02 04:51:36;;;;;;;7.38;4.38;;;;;;;15.34;100.00;94885.72;5077555;28;20070;-70
2022/08/02 04:54:07;;;;;;;4.88;3.78;;;;;;;15.44;100.00;94884.94;5069174;28;20051;-70
2022/08/02 04:56:37;;;;;;;3.95;3.25;;;;;;;15.58;100.00;94890.47;5085237;28;20036;-70
2022/08/02 04:59:05;;;;;;;5.57;3.88;;;;;;;15.63;100.00;94882.63;5067566;27;20048;-70
2022/08/02 05:01:32;;;;;;;4.50;3.70;;;;;;;15.74;100.00;94894.72;5071601;28;20040;-70
2022/08/02 05:03:59;;;;;;;3.33;3.03;;;;;;;15.88;100.00;94907.31;5088867;28;20056;-69
2022/08/02 05:06:26;;;;;;;6.18;4.00;;;;;;;15.93;100.00;94913.38;5069195;28;20051;-70
2022/08/02 05:08:53;;;;;;;6.28;4.32;;;;;;;15.97;100.00;94903.13;5065772;28;20036;-69
2022/08/02 05:11:23;;;;;;;5.43;4.30;;;;;;;16.07;100.00;94902.34;5090292;28;20047;-70
2022/08/02 05:14:04;;;;;;;4.43;3.70;;;;;;;16.13;100.00;94896.81;5085958;28;20050;-70
2022/08/02 05:16:31;;;;;;;4.93;3.67;;;;;;;16.34;100.00;94910.72;5072643;28;20116;-68
2022/08/02 05:18:59;;;;;;;6.90;4.53;;;;;;;16.49;100.00;94904.66;5086294;28;20040;-68
2022/08/02 05:21:28;;;;;;;9.23;4.15;;;;;;;16.60;100.00;94900.97;5088288;28;20958;-68
2022/08/02 05:23:54;;;;;;;6.68;4.50;;;;;;;16.67;100.00;94910.41;5090948;28;20036;-68
2022/08/02 05:26:21;;;;;;;9.43;4.07;;;;;;;16.63;99.99;94905.69;5080833;28;20036;-68
2022/08/02 05:28:48;;;;;;;5.00;4.50;;;;;;;16.74;98.79;94908.28;5088461;28;20036;-68
2022/08/02 05:31:15;;;;;;;5.72;4.35;;;;;;;16.83;98.47;94911.97;5092319;28;20047;-68
2022/08/02 05:33:42;;;;;;;6.07;3.63;;;;;;;16.88;98.54;94908.56;5070019;28;20062;-68
2022/08/02 05:36:09;;;;;;;5.07;4.00;;;;;;;16.92;98.69;94906.94;5085874;28;20746;-68
2022/08/02 05:38:36;;;;;;;4.60;3.92;;;;;;;16.88;97.72;94896.19;5072878;28;20056;-68
2022/08/02 05:41:06;;;;;;;4.55;3.70;;;;;;;16.80;97.42;94883.56;5085121;28;20047;-68
2022/08/02 05:43:33;;;;;;;6.65;3.88;;;;;;;17.08;97.42;94905.06;5083734;28;20093;-68
2022/08/02 05:46:00;;;;;;;15.60;3.53;;;;;;;17.18;96.57;94910.28;5082265;28;20047;-68
2022/08/02 05:48:27;;;;;;;7.97;3.88;;;;;;;17.36;96.34;94912.28;5078466;28;20163;-68
2022/08/02 05:51:08;;;;;;;5.38;3.80;;;;;;;17.44;95.68;94907.50;5094228;28;20036;-68
2022/08/02 05:53:44;;;;;;;4.45;3.33;;;;;;;17.47;94.14;94906.97;5084258;28;20131;-68
2022/08/02 05:56:30;;;;;;;6.53;3.85;;;;;;;17.59;96.02;94915.31;5086599;28;20036;-68
2022/08/02 05:59:17;;;;;;;13.05;4.85;;;;;;;17.58;93.78;94913.75;5077221;28;20092;-69
2022/08/02 06:01:47;;;;;;;4.97;3.75;;;;;;;17.75;93.53;94916.81;5077224;28;20914;-69
2022/08/02 06:04:23;;;;;;;4.18;3.58;;;;;;;17.95;93.16;94928.28;5082606;28;20547;-69
2022/08/02 06:06:54;;;;;;;5.18;3.45;;;;;;;18.05;90.92;94922.94;5083902;28;20043;-68
2022/08/02 06:09:22;;;;;;;4.57;4.18;;;;;;;18.08;91.97;94927.66;5084082;28;20703;-69
2022/08/02 06:11:57;;;;;;;4.82;4.18;;;;;;;18.19;92.62;94922.31;5088152;28;20044;-69
2022/08/02 06:14:31;;;;;;;4.82;3.83;;;;;;;18.35;89.59;94926.41;5084487;28;20051;-69
2022/08/02 06:17:03;;;;;;;7.97;3.75;;;;;;;18.39;92.48;94943.22;5088873;28;20040;-69
2022/08/02 06:19:31;;;;;;;6.88;3.95;;;;;;;18.62;92.02;94933.00;5087034;28;20093;-69
2022/08/02 06:22:18;;;;;;;13.40;4.88;;;;;;;18.58;90.69;94945.16;5083086;28;20085;-68
2022/08/02 06:25:04;;;;;;;9.15;3.75;;;;;;;18.88;90.97;94949.38;5082311;28;20039;-69
2022/08/02 06:27:32;;;;;;;7.30;3.00;;;;;;;19.09;85.09;94949.97;5088982;28;20043;-69
2022/08/02 06:30:01;;;;;;;5.97;3.00;;;;;;;19.29;85.29;94944.44;5086586;28;20047;-69
2022/08/02 06:32:27;;;;;;;6.25;3.08;;;;;;;19.36;81.29;94946.75;5086600;28;20100;-69
2022/08/02 06:34:55;;;;;;;5.05;2.80;;;;;;;19.54;82.30;94955.75;5092390;28;20052;-69
2022/08/02 06:37:43;;;;;;;6.70;2.83;;;;;;;19.62;79.88;94951.69;5086714;28;20949;-69
2022/08/02 06:40:26;;;;;;;5.88;2.72;;;;;;;19.76;78.26;94946.50;5067969;28;20450;-68
2022/08/02 06:43:24;;;;;;;5.25;3.30;;;;;;;19.88;79.07;94949.50;5091451;28;20032;-69
2022/08/02 06:45:51;;;;;;;4.32;3.17;;;;;;;19.99;79.11;94948.28;5089000;28;20835;-69
2022/08/02 06:48:18;;;;;;;5.65;3.50;;;;;;;20.04;79.25;94921.78;5088702;28;20043;-68
2022/08/02 06:50:45;;;;;;;3.72;3.05;;;;;;;20.16;79.13;94954.91;5086465;28;20098;-69
2022/08/02 06:53:12;;;;;;;5.50;2.83;;;;;;;20.29;79.30;94951.50;5086731;28;20036;-69
2022/08/02 06:55:41;;;;;;;4.55;2.92;;;;;;;20.31;77.13;94940.66;5078569;28;20691;-69
2022/08/02 06:58:11;;;;;;;3.00;2.45;;;;;;;20.03;78.84;94912.25;5066886;28;20067;-69
2022/08/02 07:00:39;;;;;;;5.03;2.92;;;;;;;20.47;78.34;94938.53;5081201;28;20071;-70
2022/08/02 07:03:06;;;;;;;3.63;2.83;;;;;;;20.58;77.90;94950.50;5084528;28;20534;-69
2022/08/02 07:05:33;;;;;;;6.38;2.90;;;;;;;20.75;78.30;94940.19;5086795;28;20067;-70
2022/08/02 07:08:01;;;;;;;3.83;2.80;;;;;;;20.87;76.94;94944.22;5084057;28;20040;-70
2022/08/02 07:10:28;;;;;;;3.55;3.00;;;;;;;21.04;75.73;94952.38;5086998;28;20044;-70
2022/08/02 07:12:55;;;;;;;6.60;2.42;;;;;;;21.20;72.40;94940.41;5081527;28;20044;-69
2022/08/02 07:15:25;;;;;;;4.20;2.50;;;;;;;21.43;74.68;94948.44;5083424;28;20055;-70
2022/08/02 07:17:54;;;;;;;4.65;3.10;;;;;;;21.71;73.29;94940.47;5085696;28;20509;-70
2022/08/02 07:20:20;;;;;;;5.03;2.63;;;;;;;21.85;71.21;94938.56;5094842;28;20705;-70
2022/08/02 07:22:47;;;;;;;6.35;2.80;;;;;;;22.04;72.61;94942.91;5084400;28;20040;-74
2022/08/02 07:25:14;;;;;;;6.25;2.58;;;;;;;21.97;68.41;94930.09;5068876;28;21505;-72
2022/08/02 07:27:41;;;;;;;6.10;2.88;;;;;;;21.93;68.79;94929.91;5083785;28;20154;-73
2022/08/02 07:30:09;;;;;;;8.95;2.92;;;;;;;22.26;70.81;94937.66;5087796;28;20046;-73
2022/08/02 07:32:36;;;;;;;3.53;2.40;;;;;;;22.48;67.78;94944.03;5086257;28;20630;-74
2022/08/02 07:35:05;;;;;;;2.92;1.98;;;;;;;22.56;66.95;94937.97;5086489;28;20058;-69
2022/08/02 07:37:34;;;;;;;3.30;2.60;;;;;;;22.69;67.09;94937.09;5076259;28;20076;-68
2022/08/02 07:40:23;;;;;;;4.03;2.22;;;;;;;22.80;65.64;94936.84;5075536;28;20129;-67
2022/08/02 07:42:52;;;;;;;17.88;2.10;;;;;;;23.06;63.95;94943.06;5095798;28;20042;-66
2022/08/02 07:45:24;;;;;;;4.03;1.75;;;;;;;23.19;59.64;94935.28;5080442;28;20074;-65
2022/08/02 07:47:51;;;;;;;3.33;1.98;;;;;;;23.19;58.17;94930.78;5087718;28;20036;-67
2022/08/02 07:50:19;;;;;;;1.83;1.42;;;;;;;23.33;58.08;94930.63;5083288;27;20086;-66
2022/08/02 07:52:46;;;;;;;7.65;1.85;;;;;;;23.39;57.68;94929.41;5086219;28;20058;-66
2022/08/02 07:55:16;;;;;;;2.28;1.75;;;;;;;23.64;58.75;94932.41;5079873;28;20425;-66
2022/08/02 07:57:44;;;;;;;3.38;1.38;;;;;;;23.71;56.90;94924.75;5091281;28;20040;-65
2022/08/02 08:00:14;;;;;;;2.55;1.58;;;;;;;23.77;56.89;94934.16;5086112;28;20479;-67
2022/08/02 08:02:42;;;;;;;2.10;1.48;;;;;;;23.82;56.26;94931.38;5083066;28;20055;-65
2022/08/02 08:05:10;;;;;;;2.47;1.40;;;;;;;23.96;55.62;94928.53;5068367;28;20704;-66
2022/08/02 08:07:38;;;;;;;3.30;1.38;;;;;;;24.13;55.74;94933.09;5093223;27;20040;-72
2022/08/02 08:10:06;;;;;;;2.03;0.95;;;;;;;24.23;54.21;94929.31;5093710;28;20052;-72
2022/08/02 08:12:33;;;;;;;4.00;1.23;;;;;;;24.47;54.41;94934.16;5094673;28;20109;-72
2022/08/02 08:15:00;;;;;;;2.60;1.08;;;;;;;24.48;52.79;94935.69;5072969;28;20937;-72
2022/08/02 08:17:27;;;;;;;1.25;0.90;;;;;;;24.51;51.31;94929.75;5096284;28;20032;-72
2022/08/02 08:19:54;;;;;;;1.88;1.08;;;;;;;24.41;50.60;94935.38;5114076;27;20036;-72
2022/08/02 08:22:21;;;;;;;3.42;1.08;;;;;;;24.38;50.31;94920.03;5079178;28;20139;-73
2022/08/02 08:24:49;;;;;;;2.40;1.30;;;;;;;24.24;50.96;94926.34;5095485;28;20051;-72
2022/08/02 08:27:16;;;;;;;1.17;0.77;;;;;;;24.43;49.30;94934.00;5089215;28;20417;-72
2022/08/02 08:29:44;;;;;;;2.08;1.02;;;;;;;24.60;49.17;94927.09;5069691;28;20861;-72
2022/08/02 08:32:12;;;;;;;1.00;0.70;;;;;;;24.48;50.16;94929.59;5111084;27;20036;-72
2022/08/02 08:34:47;;;;;;;2.40;1.20;;;;;;;24.37;50.24;94918.50;5080653;28;20047;-72
2022/08/02 08:37:15;;;;;;;1.90;0.70;;;;;;;24.60;50.09;94933.19;5105518;27;20044;-72
2022/08/02 08:39:43;;;;;;;1.58;0.98;;;;;;;24.69;50.56;94930.50;5076211;28;20532;-72
2022/08/02 08:42:26;;;;;;;1.55;1.10;;;;;;;25.14;48.27;94934.56;5091228;28;20053;-73
2022/08/02 08:44:55;;;;;;;1.98;1.08;;;;;;;25.38;49.04;94932.09;5092717;28;20032;-73
2022/08/02 08:47:27;;;;;;;3.85;1.13;;;;;;;25.48;48.13;94922.16;5076800;28;20576;-73
2022/08/02 08:50:05;;;;;;;6.75;1.20;;;;;;;25.58;46.49;94932.47;5087087;28;20055;-73
2022/08/02 08:52:40;;;;;;;3.53;1.25;;;;;;;25.44;47.63;94926.59;5081862;28;20752;-72
2022/08/02 08:55:12;;;;;;;6.78;0.82;;;;;;;25.24;47.41;94933.41;5069346;28;20055;-72
2022/08/02 08:57:41;;;;;;;1.45;1.00;;;;;;;25.60;47.27;94922.25;5067110;28;20345;-72
2022/08/02 09:00:12;;;;;;;7.13;1.30;;;;;;;26.10;46.71;94921.41;5088333;28;20047;-73
2022/08/02 09:02:41;;;;;;;2.75;0.80;;;;;;;26.34;44.68;94919.94;5084431;28;20123;-72
2022/08/02 09:05:14;;;;;;;1.58;0.80;;;;;;;26.31;43.48;94920.63;5069739;28;20048;-72
2022/08/02 09:07:43;;;;;;;0.95;0.82;;;;;;;26.42;43.47;94927.09;5064838;28;20043;-72
2022/08/02 09:10:39;;;;;;;3.22;0.85;;;;;;;26.75;44.06;94928.97;5089980;28;20066;-72
2022/08/02 09:13:19;;;;;;;1.45;0.80;;;;;;;26.91;42.92;94906.97;5069166;28;20032;-72
2022/08/02 09:16:06;;;;;;;2.03;0.90;;;;;;;26.83;43.33;94919.28;5086532;28;20040;-72
2022/08/02 09:18:44;;;;;;;1.53;0.70;;;;;;;27.14;42.26;94929.47;5093385;28;20063;-72
2022/08/02 09:21:15;;;;;;;2.65;0.90;;;;;;;27.12;43.05;94910.31;5088247;27;20730;-73
2022/08/02 09:23:46;;;;;;;3.15;1.05;;;;;;;27.21;42.46;94924.34;5075501;28;20048;-73
2022/08/02 09:26:17;;;;;;;1.10;0.73;;;;;;;27.38;40.40;94927.91;5091840;28;20940;-73
2022/08/02 09:28:48;;;;;;;2.13;0.68;;;;;;;27.80;40.13;94924.94;5093598;28;20044;-73
2022/08/02 09:31:21;;;;;;;0.82;0.63;;;;;;;27.89;39.98;94925.56;5070483;28;20415;-73
2022/08/02 09:33:53;;;;;;;2.15;0.80;;;;;;;27.74;39.30;94923.63;5065639;28;20036;-73
2022/08/02 09:36:21;;;;;;;1.77;0.68;;;;;;;27.61;38.66;94920.97;5050735;28;20048;-73
2022/08/02 09:39:11;;;;;;;1.38;0.73;;;;;;;27.67;39.75;94923.41;5092152;28;20044;-73
2022/08/02 09:41:40;;;;;;;1.55;0.80;;;;;;;27.49;40.25;94929.00;5085525;28;20028;-73
2022/08/02 09:44:09;;;;;;;1.73;1.10;;;;;;;27.50;40.16;94927.91;5091515;28;20048;-73
2022/08/02 09:46:45;;;;;;;1.13;0.70;;;;;;;27.76;39.72;94929.41;5091253;27;20055;-73
2022/08/02 09:49:18;;;;;;;2.30;0.60;;;;;;;27.81;38.63;94929.19;5083789;28;20501;-74
2022/08/02 09:51:48;;;;;;;1.65;0.45;;;;;;;27.96;38.95;94931.16;5081485;28;20817;-74
2022/08/02 09:54:17;;;;;;;1.20;0.50;;;;;;;28.14;38.11;94930.88;5080297;28;20050;-74
2022/08/02 09:56:50;;;;;;;1.05;0.70;;;;;;;28.45;38.52;94922.16;5059923;28;20068;-74
2022/08/02 09:59:20;;;;;;;0.85;0.43;;;;;;;28.63;37.33;94906.59;5082385;28;20039;-74
2022/08/02 10:01:48;;;;;;;1.00;0.57;;;;;;;29.21;35.96;94918.69;5062336;28;21125;-74
2022/08/02 10:04:29;;;;;;;1.20;0.68;;;;;;;29.71;36.39;94917.09;5102680;27;20051;-74
2022/08/02 10:06:58;;;;;;;2.35;1.08;;;;;;;30.18;35.77;94908.13;5078336;28;20710;-74
2022/08/02 10:09:27;;;;;;;6.15;0.52;;;;;;;30.44;33.18;94917.44;5084269;28;20032;-74
2022/08/02 10:11:55;;;;;;;1.25;0.80;;;;;;;30.21;32.44;94910.06;5083811;28;20807;-73
2022/08/02 10:14:22;;;;;;;3.22;0.60;;;;;;;30.38;34.01;94921.53;5081183;28;20053;-74
2022/08/02 10:16:52;;;;;;;1.15;0.82;;;;;;;30.44;33.14;94922.81;5106018;27;20075;-73
2022/08/02 10:19:19;;;;;;;0.80;0.50;;;;;;;30.58;32.69;94909.63;5097959;27;20509;-74
2022/08/02 10:22:12;;;;;;;4.07;1.00;;;;;;;30.59;31.88;94913.09;5073717;28;20127;-74
2022/08/02 10:24:41;;;;;;;0.90;0.50;;;;;;;30.17;32.77;94916.53;5095611;27;20050;-74
2022/08/02 10:27:18;;;;;;;0.82;0.50;;;;;;;29.78;33.04;94917.28;5086047;28;20047;-74
2022/08/02 10:29:49;;;;;;;1.40;0.50;;;;;;;29.75;34.10;94923.38;5067171;28;20052;-74
2022/08/02 10:32:38;;;;;;;2.30;1.77;;;;;;;29.67;35.00;94921.63;5081910;28;20063;-74
2022/08/02 10:35:10;;;;;;;0.93;0.60;;;;;;;29.29;34.55;94917.72;5071713;28;20048;-79
2022/08/02 10:38:06;;;;;;;4.20;1.90;;;;;;;29.03;35.98;94916.34;5069535;28;20133;-70
2022/08/02 10:40:51;;;;;;;0.63;0.40;;;;;;;28.89;36.31;94916.00;5085232;28;20047;-71
2022/08/02 10:43:30;;;;;;;1.33;0.60;;;;;;;28.85;34.69;94905.19;5085347;28;20046;-71
2022/08/02 10:46:33;;;;;;;1.70;0.90;;;;;;;29.66;35.14;94914.72;5068412;28;20703;-70
2022/08/02 10:49:00;;;;;;;2.97;0.57;;;;;;;30.02;34.09;94910.13;5069936;28;20052;-70
2022/08/02 10:51:55;;;;;;;0.55;0.40;;;;;;;29.79;34.49;94908.13;5090772;28;20742;-71
2022/08/02 10:54:46;;;;;;;5.95;0.57;;;;;;;29.33;35.38;94913.22;5087062;28;20052;-69
2022/08/02 10:57:36;;;;;;;0.80;0.70;;;;;;;28.88;35.43;94903.72;5085099;28;20624;-70
2022/08/02 11:00:19;;;;;;;3.33;0.80;;;;;;;29.03;36.10;94911.00;5086592;28;20118;-75
2022/08/02 11:02:47;;;;;;;3.05;1.15;;;;;;;29.52;35.96;94910.59;5085543;28;20039;-76
2022/08/02 11:05:32;;;;;;;5.00;0.50;;;;;;;29.59;35.07;94909.19;5069748;28;20082;-76
2022/08/02 11:08:21;;;;;;;1.35;0.85;;;;;;;30.22;34.85;94908.97;5088405;28;20032;-76
2022/08/02 11:10:48;;;;;;;2.22;0.60;;;;;;;30.01;32.84;94895.88;5085223;28;20043;-76
2022/08/02 11:13:18;;;;;;;0.95;0.70;;;;;;;29.88;33.75;94903.31;5088326;28;20036;-75
2022/08/02 11:16:04;;;;;;;1.75;0.90;;;;;;;30.63;33.05;94903.97;5071565;28;20040;-76
2022/08/02 11:18:49;;;;;;;2.20;0.60;;;;;;;30.82;32.50;94902.34;5098933;27;20560;-76
2022/08/02 11:21:24;;;;;;;1.52;0.50;;;;;;;30.53;32.37;94904.56;5085324;28;20141;-76
2022/08/02 11:23:51;;;;;;;1.02;0.60;;;;;;;30.35;32.91;94906.16;5081843;28;20032;-76
2022/08/02 11:26:28;;;;;;;2.85;0.80;;;;;;;30.27;32.94;94906.00;5068087;28;20060;-76
2022/08/02 11:28:59;;;;;;;3.78;0.63;;;;;;;30.25;33.64;94908.25;5082619;28;20024;-76
2022/08/02 11:31:27;;;;;;;2.00;0.65;;;;;;;30.44;33.47;94898.63;5067913;28;20445;-76
2022/08/02 11:33:54;;;;;;;1.38;0.63;;;;;;;31.11;32.71;94902.84;5068163;28;20044;-75
2022/08/02 11:36:23;;;;;;;1.10;0.52;;;;;;;31.47;31.79;94908.75;5087917;28;20032;-75
2022/08/02 11:39:08;;;;;;;1.40;0.47;;;;;;;31.53;31.22;94907.31;5068412;28;20036;-75
2022/08/02 11:41:35;;;;;;;0.98;0.50;;;;;;;31.61;30.99;94908.97;5068575;28;20048;-74
2022/08/02 11:44:12;;;;;;;1.75;0.73;;;;;;;31.60;30.72;94899.31;5052624;28;20071;-77
2022/08/02 11:46:39;;;;;;;4.90;0.70;;;;;;;31.92;30.86;94907.03;5070999;28;20039;-74
2022/08/02 11:49:14;;;;;;;5.32;0.88;;;;;;;31.57;30.70;94902.78;5075889;28;20039;-75
2022/08/02 11:51:58;;;;;;;2.25;0.93;;;;;;;31.53;31.76;94899.22;5068411;28;20189;-74
2022/08/02 11:54:31;;;;;;;5.53;0.70;;;;;;;31.40;30.94;94904.81;5090471;28;20151;-75
2022/08/02 11:57:16;;;;;;;1.63;0.73;;;;;;;31.39;31.49;94887.13;5089039;28;20138;-75